createdAt,value
2022-11-01T00:02:32.470Z,77.6
2022-11-01T00:08:07.899Z,77.7
2022-11-01T00:13:42.713Z,77.7
2022-11-01T00:19:17.509Z,77.8
2022-11-01T00:24:55.535Z,77.9
2022-11-01T00:30:30.728Z,78
2022-11-01T00:36:05.709Z,78.1
2022-11-01T00:42:02.268Z,78.2
2022-11-01T00:47:34.868Z,78.4
2022-11-01T00:53:09.577Z,78.5
2022-11-01T00:58:44.476Z,78.5
2022-11-01T01:04:19.345Z,78.6
2022-11-01T01:09:54.208Z,78.7
2022-11-01T01:15:29.189Z,78.8
2022-11-01T01:21:04.219Z,78.9
2022-11-01T01:26:40.117Z,79
2022-11-01T01:32:15.028Z,79.1
2022-11-01T01:37:56.525Z,79.1
2022-11-01T01:43:53.254Z,79.1
2022-11-01T01:49:25.873Z,79.3
2022-11-01T01:55:00.862Z,79.2
2022-11-01T02:00:35.945Z,79.3
2022-11-01T02:06:11.187Z,79.3
2022-11-01T02:11:48.233Z,79.3
2022-11-01T02:17:22.898Z,79.4
2022-11-01T02:22:57.837Z,79.5
2022-11-01T02:28:33.935Z,79.5
2022-11-01T02:34:08.677Z,79.5
2022-11-01T02:39:43.473Z,79.5
2022-11-01T02:45:19.318Z,79.5
2022-11-01T02:50:55.477Z,79.5
2022-11-01T02:56:30.179Z,79.5
2022-11-01T03:02:05.551Z,79.5
2022-11-01T03:07:41.755Z,79.5
2022-11-01T03:13:16.638Z,79.4
2022-11-01T03:18:51.838Z,79.3
2022-11-01T03:24:27.303Z,79.3
2022-11-01T03:30:02.046Z,79.3
2022-11-01T03:35:37.602Z,79.4
2022-11-01T03:41:34.267Z,79.4
2022-11-01T03:47:07.981Z,79.7
2022-11-01T03:52:43.777Z,79.7
2022-11-01T03:58:19.015Z,79.8
2022-11-01T04:03:53.987Z,79.9
2022-11-01T04:09:29.268Z,80
2022-11-01T04:15:04.015Z,80
2022-11-01T04:20:38.913Z,80.1
2022-11-01T04:26:14.592Z,80.2
2022-11-01T04:31:50.794Z,80.2
2022-11-01T04:37:25.650Z,80.3
2022-11-01T04:43:22.376Z,80.3
2022-11-01T04:48:54.827Z,80.4
2022-11-01T04:54:29.562Z,80.5
2022-11-01T05:00:04.796Z,80.4
2022-11-01T05:05:40.744Z,80.4
2022-11-01T05:11:15.981Z,80.3
2022-11-01T05:16:50.868Z,80.2
2022-11-01T05:22:25.976Z,80.2
2022-11-01T05:28:02.148Z,80.4
2022-11-01T05:33:39.479Z,80.4
2022-11-01T05:39:14.754Z,80.5
2022-11-01T05:44:49.726Z,80.3
2022-11-01T05:50:25.856Z,80.1
2022-11-01T05:56:00.942Z,80
2022-11-01T06:01:35.988Z,80
2022-11-01T06:07:11.934Z,79.9
2022-11-01T06:12:46.776Z,79.9
2022-11-01T06:18:21.589Z,79.8
2022-11-01T06:23:56.485Z,79.9
2022-11-01T06:29:31.330Z,80
2022-11-01T06:35:06.414Z,80
2022-11-01T06:41:04.150Z,80
2022-11-01T06:46:38.338Z,80.1
2022-11-01T06:52:13.028Z,80.1
2022-11-01T06:57:48.447Z,80.1
2022-11-01T07:03:24.222Z,80.3
2022-11-01T07:09:00.043Z,80.6
2022-11-01T07:14:35.230Z,80.6
2022-11-01T07:20:10.259Z,80.6
2022-11-01T07:25:44.908Z,80.6
2022-11-01T07:31:19.789Z,80.6
2022-11-01T07:36:54.776Z,80.7
2022-11-01T07:42:29.984Z,80.7
2022-11-01T07:48:06.116Z,82.6
2022-11-01T07:53:41.206Z,82.9
2022-11-01T07:59:16.389Z,83.5
2022-11-01T08:04:51.565Z,82.5
2022-11-01T08:10:26.955Z,83.9
2022-11-01T08:16:04.869Z,83.1
2022-11-01T08:21:48.687Z,83.1
2022-11-01T08:27:35.423Z,83.5
2022-11-01T08:33:11.004Z,83.5
2022-11-01T08:38:45.872Z,81.4
2022-11-01T08:44:21.741Z,82.6
2022-11-01T08:49:56.750Z,81.3
2022-11-01T08:55:38.421Z,81.5
2022-11-01T09:01:15.662Z,80.4
2022-11-01T09:06:52.719Z,80
2022-11-01T09:12:27.919Z,81.1
2022-11-01T09:18:05.106Z,77.2
2022-11-01T09:23:40.051Z,79.7
2022-11-01T09:29:14.985Z,76.2
2022-11-01T09:34:50.180Z,76.7
2022-11-01T09:40:30.619Z,80.4
2022-11-01T09:46:48.378Z,76.1
2022-11-01T09:52:37.247Z,78.6
2022-11-01T09:58:12.490Z,77.5
2022-11-01T10:03:47.671Z,78.2
2022-11-01T10:09:22.642Z,76.6
2022-11-01T10:14:59.162Z,75.2
2022-11-01T10:20:40.285Z,74.4
2022-11-01T10:26:15.363Z,76.2
2022-11-01T10:31:50.492Z,74.5
2022-11-01T10:37:25.490Z,72
2022-11-01T10:43:22.164Z,71.5
2022-11-01T10:48:54.710Z,71.4
2022-11-01T10:54:30.051Z,69.9
2022-11-01T11:00:05.139Z,70.6
2022-11-01T11:05:40.806Z,69
2022-11-01T11:11:39.329Z,70.6
2022-11-01T11:17:16.468Z,69.7
2022-11-01T11:22:51.822Z,71.9
2022-11-01T11:28:29.838Z,67.6
2022-11-01T11:34:05.201Z,71.9
2022-11-01T11:39:40.963Z,70.1
2022-11-01T11:45:17.098Z,70
2022-11-01T11:50:53.301Z,70.1
2022-11-01T11:56:41.529Z,66.1
2022-11-01T12:02:20.553Z,67.8
2022-11-01T12:08:15.470Z,64.5
2022-11-01T12:13:50.285Z,66
2022-11-01T12:19:28.294Z,66.2
2022-11-01T12:25:04.193Z,65.7
2022-11-01T12:30:40.402Z,65.1
2022-11-01T12:36:16.537Z,69.1
2022-11-01T12:42:13.148Z,69
2022-11-01T12:47:46.169Z,67.8
2022-11-01T12:53:21.074Z,63.1
2022-11-01T12:58:56.031Z,61.8
2022-11-01T13:04:32.368Z,61.7
2022-11-01T13:10:07.485Z,61.8
2022-11-01T13:15:42.365Z,64
2022-11-01T13:21:17.301Z,59.2
2022-11-01T13:27:01.217Z,62.3
2022-11-01T13:32:38.824Z,53.5
2022-11-01T13:38:18.148Z,50.9
2022-11-01T13:44:14.835Z,45.4
2022-11-01T13:49:47.867Z,44.8
2022-11-01T13:55:22.944Z,32.9
2022-11-01T14:00:58.871Z,41.9
2022-11-01T14:06:35.940Z,51.2
2022-11-01T14:12:13.071Z,56.2
2022-11-01T14:17:48.027Z,58
2022-11-01T14:23:23.105Z,59.9
2022-11-01T14:28:58.145Z,59.7
2022-11-01T14:34:33.673Z,60.7
2022-11-01T14:40:09.512Z,59.1
2022-11-01T14:45:44.570Z,61.3
2022-11-01T14:51:20.639Z,55.1
2022-11-01T14:56:55.868Z,51.6
2022-11-01T15:02:32.505Z,57
2022-11-01T15:08:09.042Z,57.6
2022-11-01T15:13:43.857Z,59.4
2022-11-01T15:19:18.632Z,60.8
2022-11-01T15:24:53.751Z,62.4
2022-11-01T15:30:46.021Z,63.1
2022-11-01T15:36:21.082Z,63.3
2022-11-01T15:42:17.990Z,64.3
2022-11-01T15:47:50.841Z,65.5
2022-11-01T15:53:26.749Z,67.3
2022-11-01T15:59:02.982Z,69.8
2022-11-01T16:04:39.447Z,71.9
2022-11-01T16:10:15.096Z,72.1
2022-11-01T16:15:58.797Z,73.2
2022-11-01T16:21:37.338Z,72.6
2022-11-01T16:27:12.192Z,76
2022-11-01T16:32:46.821Z,74.5
2022-11-01T16:38:21.860Z,74.1
2022-11-01T16:43:56.526Z,76
2022-11-01T16:49:33.709Z,77.5
2022-11-01T16:55:08.612Z,75.9
2022-11-01T17:00:44.428Z,74.7
2022-11-01T17:06:19.550Z,78.8
2022-11-01T17:11:54.924Z,75.7
2022-11-01T17:17:29.829Z,75.8
2022-11-01T17:23:05.026Z,75.9
2022-11-01T17:28:39.992Z,76.4
2022-11-01T17:34:15.914Z,79.9
2022-11-01T17:39:50.896Z,80.9
2022-11-01T17:45:33.479Z,81.7
2022-11-01T17:51:10.691Z,82.3
2022-11-01T17:56:45.959Z,82.7
2022-11-01T18:02:21.486Z,80.6
2022-11-01T18:07:58.632Z,78
2022-11-01T18:13:38.396Z,76.9
2022-11-01T18:19:18.919Z,76.3
2022-11-01T18:24:57.757Z,75.9
2022-11-01T18:30:32.783Z,75.4
2022-11-01T18:36:22.097Z,75.2
2022-11-01T18:42:23.828Z,74.9
2022-11-01T18:47:57.824Z,74.9
2022-11-01T18:53:32.694Z,74.8
2022-11-01T18:59:08.377Z,74.7
2022-11-01T19:04:43.228Z,74.9
2022-11-01T19:10:18.260Z,74.9
2022-11-01T19:15:54.674Z,75
2022-11-01T19:21:32.887Z,75
2022-11-01T19:27:52.894Z,75.2
2022-11-01T19:33:27.746Z,75.4
2022-11-01T19:39:05.462Z,75.5
2022-11-01T19:44:41.670Z,75.5
2022-11-01T19:50:16.344Z,75.5
2022-11-01T19:55:51.389Z,75.6
2022-11-01T20:01:26.781Z,75.7
2022-11-01T20:07:03.840Z,75.9
2022-11-01T20:12:45.028Z,75.8
2022-11-01T20:18:20.382Z,76
2022-11-01T20:23:56.433Z,76
2022-11-01T20:29:31.594Z,76.4
2022-11-01T20:35:06.390Z,76.3
2022-11-01T20:41:03.830Z,76.3
2022-11-01T20:46:37.536Z,76.5
2022-11-01T20:52:40.299Z,76.6
2022-11-01T20:58:15.699Z,76.6
2022-11-01T21:04:11.483Z,76.5
2022-11-01T21:09:47.218Z,76.5
2022-11-01T21:15:22.000Z,76.6
2022-11-01T21:21:01.042Z,76.5
2022-11-01T21:26:44.964Z,76.5
2022-11-01T21:32:30.877Z,76.6
2022-11-01T21:38:06.717Z,76.4
2022-11-01T21:44:03.739Z,76.1
2022-11-01T21:49:36.227Z,76
2022-11-01T21:55:11.497Z,75.9
2022-11-01T22:00:47.677Z,76.3
2022-11-01T22:06:31.286Z,76.2
2022-11-01T22:12:06.233Z,76.1
2022-11-01T22:17:40.992Z,76.2
2022-11-01T22:23:16.884Z,76.4
2022-11-01T22:28:52.570Z,76.5
2022-11-01T22:34:27.448Z,76.5
2022-11-01T22:40:03.906Z,76.7
2022-11-01T22:45:39.055Z,76.9
2022-11-01T22:51:13.958Z,77
2022-11-01T22:56:48.807Z,77.2
2022-11-01T23:02:24.402Z,77
2022-11-01T23:08:02.325Z,77
2022-11-01T23:13:37.359Z,77.2
2022-11-01T23:19:12.650Z,77.2
2022-11-01T23:25:03.363Z,77.1
2022-11-01T23:30:38.038Z,77
2022-11-01T23:36:13.847Z,77.1
2022-11-01T23:42:14.356Z,77
2022-11-01T23:47:47.051Z,77.1
2022-11-01T23:53:21.860Z,77.2
2022-11-01T23:58:56.779Z,77.1
